sensor_id;sensor_type;location;lat;lon;timestamp;P1;durP1;ratioP1;P2;durP2;ratioP2
13487;SDS011;6816;48.506;9.050;2022-09-27T00:02:35;0.70;;;0.50;;
13487;SDS011;6816;48.506;9.050;2022-09-27T00:05:36;0.30;;;0.30;;
13487;SDS011;6816;48.506;9.050;2022-09-27T00:08:37;0.57;;;0.30;;
13487;SDS011;6816;48.506;9.050;2022-09-27T00:11:38;0.40;;;0.30;;
13487;SDS011;6816;48.506;9.050;2022-09-27T00:14:41;0.50;;;0.30;;
13487;SDS011;6816;48.506;9.050;2022-09-27T00:17:42;0.50;;;0.50;;
13487;SDS011;6816;48.506;9.050;2022-09-27T00:20:43;0.40;;;0.40;;
13487;SDS011;6816;48.506;9.050;2022-09-27T00:23:44;0.80;;;0.40;;
13487;SDS011;6816;48.506;9.050;2022-09-27T00:26:45;0.43;;;0.40;;
13487;SDS011;6816;48.506;9.050;2022-09-27T00:29:47;0.20;;;0.20;;
13487;SDS011;6816;48.506;9.050;2022-09-27T00:32:47;0.50;;;0.30;;
13487;SDS011;6816;48.506;9.050;2022-09-27T00:35:48;1.60;;;0.60;;
13487;SDS011;6816;48.506;9.050;2022-09-27T00:38:49;0.87;;;0.20;;
13487;SDS011;6816;48.506;9.050;2022-09-27T00:41:49;0.43;;;0.20;;
13487;SDS011;6816;48.506;9.050;2022-09-27T00:45:01;0.60;;;0.40;;
13487;SDS011;6816;48.506;9.050;2022-09-27T00:48:05;0.40;;;0.30;;
13487;SDS011;6816;48.506;9.050;2022-09-27T00:51:06;0.20;;;0.10;;
13487;SDS011;6816;48.506;9.050;2022-09-27T00:54:09;0.30;;;0.23;;
13487;SDS011;6816;48.506;9.050;2022-09-27T00:57:13;0.30;;;0.30;;
13487;SDS011;6816;48.506;9.050;2022-09-27T01:00:15;0.23;;;0.20;;
13487;SDS011;6816;48.506;9.050;2022-09-27T01:03:20;0.83;;;0.30;;
13487;SDS011;6816;48.506;9.050;2022-09-27T01:06:25;0.53;;;0.20;;
13487;SDS011;6816;48.506;9.050;2022-09-27T01:09:26;1.03;;;0.20;;
13487;SDS011;6816;48.506;9.050;2022-09-27T01:25:18;1.27;;;0.20;;
13487;SDS011;6816;48.506;9.050;2022-09-27T01:32:07;0.30;;;0.20;;
13487;SDS011;6816;48.506;9.050;2022-09-27T01:38:32;0.30;;;0.20;;
13487;SDS011;6816;48.506;9.050;2022-09-27T01:48:21;0.20;;;0.13;;
13487;SDS011;6816;48.506;9.050;2022-09-27T01:51:57;0.20;;;0.20;;
13487;SDS011;6816;48.506;9.050;2022-09-27T01:54:56;0.67;;;0.20;;
13487;SDS011;6816;48.506;9.050;2022-09-27T01:58:02;0.20;;;0.20;;
13487;SDS011;6816;48.506;9.050;2022-09-27T02:01:28;0.20;;;0.20;;
13487;SDS011;6816;48.506;9.050;2022-09-27T02:04:31;0.43;;;0.07;;
13487;SDS011;6816;48.506;9.050;2022-09-27T02:07:43;0.37;;;0.20;;
13487;SDS011;6816;48.506;9.050;2022-09-27T02:10:55;0.10;;;0.10;;
13487;SDS011;6816;48.506;9.050;2022-09-27T02:20:32;0.20;;;0.00;;
13487;SDS011;6816;48.506;9.050;2022-09-27T02:23:41;1.90;;;0.20;;
13487;SDS011;6816;48.506;9.050;2022-09-27T02:26:59;0.93;;;0.10;;
13487;SDS011;6816;48.506;9.050;2022-09-27T02:30:12;0.60;;;0.20;;
13487;SDS011;6816;48.506;9.050;2022-09-27T02:33:15;0.50;;;0.17;;
13487;SDS011;6816;48.506;9.050;2022-09-27T02:36:18;0.23;;;0.10;;
13487;SDS011;6816;48.506;9.050;2022-09-27T02:39:20;0.43;;;0.30;;
13487;SDS011;6816;48.506;9.050;2022-09-27T02:42:22;1.13;;;0.20;;
13487;SDS011;6816;48.506;9.050;2022-09-27T02:45:22;0.20;;;0.20;;
13487;SDS011;6816;48.506;9.050;2022-09-27T03:01:50;0.33;;;0.20;;
13487;SDS011;6816;48.506;9.050;2022-09-27T03:05:15;0.37;;;0.10;;
13487;SDS011;6816;48.506;9.050;2022-09-27T03:08:19;0.20;;;0.20;;
13487;SDS011;6816;48.506;9.050;2022-09-27T03:11:20;0.40;;;0.20;;
13487;SDS011;6816;48.506;9.050;2022-09-27T03:14:20;0.50;;;0.20;;
13487;SDS011;6816;48.506;9.050;2022-09-27T03:17:21;0.20;;;0.10;;
13487;SDS011;6816;48.506;9.050;2022-09-27T03:20:22;0.30;;;0.20;;
13487;SDS011;6816;48.506;9.050;2022-09-27T03:23:23;0.67;;;0.20;;
13487;SDS011;6816;48.506;9.050;2022-09-27T03:26:24;0.30;;;0.27;;
13487;SDS011;6816;48.506;9.050;2022-09-27T03:29:24;0.53;;;0.40;;
13487;SDS011;6816;48.506;9.050;2022-09-27T03:32:25;1.67;;;0.37;;
13487;SDS011;6816;48.506;9.050;2022-09-27T03:35:26;1.33;;;0.50;;
13487;SDS011;6816;48.506;9.050;2022-09-27T03:38:27;2.20;;;0.60;;
13487;SDS011;6816;48.506;9.050;2022-09-27T03:41:27;1.17;;;0.53;;
13487;SDS011;6816;48.506;9.050;2022-09-27T03:44:28;1.57;;;0.60;;
13487;SDS011;6816;48.506;9.050;2022-09-27T03:47:29;1.10;;;0.70;;
13487;SDS011;6816;48.506;9.050;2022-09-27T03:50:29;1.13;;;0.70;;
13487;SDS011;6816;48.506;9.050;2022-09-27T03:53:30;2.57;;;0.80;;
13487;SDS011;6816;48.506;9.050;2022-09-27T03:56:31;2.13;;;0.90;;
13487;SDS011;6816;48.506;9.050;2022-09-27T03:59:32;2.27;;;0.90;;
13487;SDS011;6816;48.506;9.050;2022-09-27T04:02:33;2.90;;;0.70;;
13487;SDS011;6816;48.506;9.050;2022-09-27T04:05:33;1.60;;;0.90;;
13487;SDS011;6816;48.506;9.050;2022-09-27T04:08:34;1.33;;;0.50;;
13487;SDS011;6816;48.506;9.050;2022-09-27T04:11:35;1.97;;;0.80;;
13487;SDS011;6816;48.506;9.050;2022-09-27T04:14:36;2.53;;;0.60;;
13487;SDS011;6816;48.506;9.050;2022-09-27T04:17:37;1.33;;;0.60;;
13487;SDS011;6816;48.506;9.050;2022-09-27T04:20:40;2.63;;;0.80;;
13487;SDS011;6816;48.506;9.050;2022-09-27T04:23:41;2.27;;;0.70;;
13487;SDS011;6816;48.506;9.050;2022-09-27T04:26:41;1.47;;;0.63;;
13487;SDS011;6816;48.506;9.050;2022-09-27T04:29:42;2.03;;;0.80;;
13487;SDS011;6816;48.506;9.050;2022-09-27T04:32:44;1.83;;;0.70;;
13487;SDS011;6816;48.506;9.050;2022-09-27T04:35:45;1.30;;;0.70;;
13487;SDS011;6816;48.506;9.050;2022-09-27T04:39:05;1.33;;;0.70;;
13487;SDS011;6816;48.506;9.050;2022-09-27T04:42:06;2.83;;;0.93;;
13487;SDS011;6816;48.506;9.050;2022-09-27T04:45:08;3.33;;;1.10;;
13487;SDS011;6816;48.506;9.050;2022-09-27T04:48:12;1.70;;;0.83;;
13487;SDS011;6816;48.506;9.050;2022-09-27T04:51:13;1.97;;;1.10;;
13487;SDS011;6816;48.506;9.050;2022-09-27T04:54:18;4.10;;;1.30;;
13487;SDS011;6816;48.506;9.050;2022-09-27T04:57:19;2.40;;;1.00;;
13487;SDS011;6816;48.506;9.050;2022-09-27T05:00:20;2.67;;;1.00;;
13487;SDS011;6816;48.506;9.050;2022-09-27T05:03:21;3.47;;;1.00;;
13487;SDS011;6816;48.506;9.050;2022-09-27T05:06:22;2.67;;;1.10;;
13487;SDS011;6816;48.506;9.050;2022-09-27T05:09:23;3.20;;;0.90;;
13487;SDS011;6816;48.506;9.050;2022-09-27T05:12:24;1.70;;;0.93;;
13487;SDS011;6816;48.506;9.050;2022-09-27T05:15:25;1.37;;;0.70;;
13487;SDS011;6816;48.506;9.050;2022-09-27T05:18:26;2.20;;;0.70;;
13487;SDS011;6816;48.506;9.050;2022-09-27T05:21:27;2.43;;;0.70;;
13487;SDS011;6816;48.506;9.050;2022-09-27T05:24:27;2.47;;;0.70;;
13487;SDS011;6816;48.506;9.050;2022-09-27T05:27:29;1.37;;;0.57;;
13487;SDS011;6816;48.506;9.050;2022-09-27T05:30:30;0.70;;;0.53;;
13487;SDS011;6816;48.506;9.050;2022-09-27T05:33:30;2.73;;;0.80;;
13487;SDS011;6816;48.506;9.050;2022-09-27T05:36:33;2.10;;;0.77;;
13487;SDS011;6816;48.506;9.050;2022-09-27T05:39:34;1.90;;;0.90;;
13487;SDS011;6816;48.506;9.050;2022-09-27T05:42:36;1.70;;;0.77;;
13487;SDS011;6816;48.506;9.050;2022-09-27T05:45:38;0.80;;;0.70;;
13487;SDS011;6816;48.506;9.050;2022-09-27T05:48:38;1.73;;;0.67;;
13487;SDS011;6816;48.506;9.050;2022-09-27T05:51:39;2.13;;;0.77;;
13487;SDS011;6816;48.506;9.050;2022-09-27T05:54:40;1.13;;;0.80;;
13487;SDS011;6816;48.506;9.050;2022-09-27T05:57:40;1.63;;;0.60;;
13487;SDS011;6816;48.506;9.050;2022-09-27T06:00:41;0.97;;;0.60;;
13487;SDS011;6816;48.506;9.050;2022-09-27T06:03:42;1.70;;;0.50;;
13487;SDS011;6816;48.506;9.050;2022-09-27T06:06:45;1.40;;;0.60;;
13487;SDS011;6816;48.506;9.050;2022-09-27T06:09:46;1.80;;;0.70;;
13487;SDS011;6816;48.506;9.050;2022-09-27T06:12:47;0.80;;;0.50;;
13487;SDS011;6816;48.506;9.050;2022-09-27T06:15:49;0.60;;;0.40;;
13487;SDS011;6816;48.506;9.050;2022-09-27T06:18:52;0.33;;;0.30;;
13487;SDS011;6816;48.506;9.050;2022-09-27T06:21:52;1.40;;;0.50;;
13487;SDS011;6816;48.506;9.050;2022-09-27T06:24:53;0.37;;;0.37;;
13487;SDS011;6816;48.506;9.050;2022-09-27T06:27:54;0.63;;;0.50;;
13487;SDS011;6816;48.506;9.050;2022-09-27T06:30:54;0.53;;;0.30;;
13487;SDS011;6816;48.506;9.050;2022-09-27T06:33:55;0.30;;;0.30;;
13487;SDS011;6816;48.506;9.050;2022-09-27T06:36:56;1.23;;;0.40;;
13487;SDS011;6816;48.506;9.050;2022-09-27T06:39:56;0.90;;;0.40;;
13487;SDS011;6816;48.506;9.050;2022-09-27T06:43:04;1.00;;;0.40;;
13487;SDS011;6816;48.506;9.050;2022-09-27T06:46:07;8.50;;;1.27;;
13487;SDS011;6816;48.506;9.050;2022-09-27T06:49:08;0.40;;;0.30;;
13487;SDS011;6816;48.506;9.050;2022-09-27T06:52:08;0.87;;;0.37;;
13487;SDS011;6816;48.506;9.050;2022-09-27T06:55:09;1.43;;;0.40;;
13487;SDS011;6816;48.506;9.050;2022-09-27T06:58:10;0.70;;;0.30;;
13487;SDS011;6816;48.506;9.050;2022-09-27T07:01:30;0.97;;;0.20;;
13487;SDS011;6816;48.506;9.050;2022-09-27T07:04:30;0.90;;;0.30;;
13487;SDS011;6816;48.506;9.050;2022-09-27T07:07:31;0.73;;;0.40;;
13487;SDS011;6816;48.506;9.050;2022-09-27T07:10:33;2.20;;;0.37;;
13487;SDS011;6816;48.506;9.050;2022-09-27T07:13:36;1.13;;;0.30;;
13487;SDS011;6816;48.506;9.050;2022-09-27T07:16:41;1.60;;;0.33;;
13487;SDS011;6816;48.506;9.050;2022-09-27T07:19:42;0.50;;;0.30;;
13487;SDS011;6816;48.506;9.050;2022-09-27T07:22:43;0.40;;;0.40;;
13487;SDS011;6816;48.506;9.050;2022-09-27T07:25:44;0.43;;;0.20;;
13487;SDS011;6816;48.506;9.050;2022-09-27T07:28:45;0.50;;;0.40;;
13487;SDS011;6816;48.506;9.050;2022-09-27T07:31:46;0.70;;;0.20;;
13487;SDS011;6816;48.506;9.050;2022-09-27T07:34:46;0.67;;;0.20;;
13487;SDS011;6816;48.506;9.050;2022-09-27T07:37:47;0.47;;;0.40;;
13487;SDS011;6816;48.506;9.050;2022-09-27T07:40:48;0.30;;;0.30;;
13487;SDS011;6816;48.506;9.050;2022-09-27T07:43:48;0.20;;;0.20;;
13487;SDS011;6816;48.506;9.050;2022-09-27T07:46:49;0.20;;;0.20;;
13487;SDS011;6816;48.506;9.050;2022-09-27T07:49:50;0.20;;;0.20;;
13487;SDS011;6816;48.506;9.050;2022-09-27T07:52:51;0.30;;;0.30;;
13487;SDS011;6816;48.506;9.050;2022-09-27T07:55:52;0.47;;;0.30;;
13487;SDS011;6816;48.506;9.050;2022-09-27T07:58:53;0.30;;;0.20;;
13487;SDS011;6816;48.506;9.050;2022-09-27T08:01:53;1.57;;;0.30;;
13487;SDS011;6816;48.506;9.050;2022-09-27T08:04:54;0.20;;;0.20;;
13487;SDS011;6816;48.506;9.050;2022-09-27T08:07:55;0.20;;;0.20;;
13487;SDS011;6816;48.506;9.050;2022-09-27T08:10:56;0.30;;;0.20;;
13487;SDS011;6816;48.506;9.050;2022-09-27T08:13:57;0.73;;;0.20;;
13487;SDS011;6816;48.506;9.050;2022-09-27T08:16:58;0.30;;;0.30;;
13487;SDS011;6816;48.506;9.050;2022-09-27T08:19:59;0.50;;;0.20;;
13487;SDS011;6816;48.506;9.050;2022-09-27T08:23:04;0.53;;;0.20;;
13487;SDS011;6816;48.506;9.050;2022-09-27T08:26:05;0.50;;;0.20;;
13487;SDS011;6816;48.506;9.050;2022-09-27T08:29:06;0.27;;;0.10;;
13487;SDS011;6816;48.506;9.050;2022-09-27T08:32:07;0.20;;;0.20;;
13487;SDS011;6816;48.506;9.050;2022-09-27T08:35:09;0.53;;;0.27;;
13487;SDS011;6816;48.506;9.050;2022-09-27T08:38:09;0.97;;;0.30;;
13487;SDS011;6816;48.506;9.050;2022-09-27T08:41:18;0.83;;;0.30;;
13487;SDS011;6816;48.506;9.050;2022-09-27T08:47:41;0.30;;;0.30;;
13487;SDS011;6816;48.506;9.050;2022-09-27T08:50:44;1.17;;;0.40;;
13487;SDS011;6816;48.506;9.050;2022-09-27T08:53:52;1.73;;;0.60;;
13487;SDS011;6816;48.506;9.050;2022-09-27T08:57:03;1.13;;;0.30;;
13487;SDS011;6816;48.506;9.050;2022-09-27T09:00:10;0.40;;;0.20;;
13487;SDS011;6816;48.506;9.050;2022-09-27T09:03:15;1.20;;;0.23;;
13487;SDS011;6816;48.506;9.050;2022-09-27T09:06:31;0.30;;;0.20;;
13487;SDS011;6816;48.506;9.050;2022-09-27T09:15:49;0.53;;;0.40;;
13487;SDS011;6816;48.506;9.050;2022-09-27T09:19:11;0.57;;;0.30;;
13487;SDS011;6816;48.506;9.050;2022-09-27T09:28:58;0.90;;;0.60;;
13487;SDS011;6816;48.506;9.050;2022-09-27T09:38:51;1.47;;;0.67;;
13487;SDS011;6816;48.506;9.050;2022-09-27T09:42:15;0.70;;;0.70;;
13487;SDS011;6816;48.506;9.050;2022-09-27T09:45:39;1.10;;;0.60;;
13487;SDS011;6816;48.506;9.050;2022-09-27T09:48:48;0.63;;;0.60;;
13487;SDS011;6816;48.506;9.050;2022-09-27T09:51:55;0.83;;;0.60;;
13487;SDS011;6816;48.506;9.050;2022-09-27T10:01:43;1.90;;;0.60;;
13487;SDS011;6816;48.506;9.050;2022-09-27T10:04:46;0.90;;;0.63;;
13487;SDS011;6816;48.506;9.050;2022-09-27T10:07:47;1.43;;;0.80;;
13487;SDS011;6816;48.506;9.050;2022-09-27T10:10:49;0.93;;;0.83;;
13487;SDS011;6816;48.506;9.050;2022-09-27T10:13:50;1.23;;;1.00;;
13487;SDS011;6816;48.506;9.050;2022-09-27T10:16:56;2.37;;;1.10;;
13487;SDS011;6816;48.506;9.050;2022-09-27T10:20:00;1.27;;;1.10;;
13487;SDS011;6816;48.506;9.050;2022-09-27T10:23:18;2.27;;;1.10;;
13487;SDS011;6816;48.506;9.050;2022-09-27T10:26:21;2.27;;;1.30;;
13487;SDS011;6816;48.506;9.050;2022-09-27T10:29:22;1.23;;;1.10;;
13487;SDS011;6816;48.506;9.050;2022-09-27T10:32:32;4.40;;;1.00;;
13487;SDS011;6816;48.506;9.050;2022-09-27T10:35:36;1.33;;;0.90;;
13487;SDS011;6816;48.506;9.050;2022-09-27T10:38:40;2.07;;;0.90;;
13487;SDS011;6816;48.506;9.050;2022-09-27T10:41:52;0.97;;;0.70;;
13487;SDS011;6816;48.506;9.050;2022-09-27T10:44:52;0.60;;;0.50;;
13487;SDS011;6816;48.506;9.050;2022-09-27T10:47:54;2.80;;;0.77;;
13487;SDS011;6816;48.506;9.050;2022-09-27T10:51:00;2.37;;;0.50;;
13487;SDS011;6816;48.506;9.050;2022-09-27T10:54:03;0.77;;;0.60;;
13487;SDS011;6816;48.506;9.050;2022-09-27T11:00:21;1.03;;;0.60;;
13487;SDS011;6816;48.506;9.050;2022-09-27T11:03:29;1.07;;;0.53;;
13487;SDS011;6816;48.506;9.050;2022-09-27T11:06:34;1.50;;;0.50;;
13487;SDS011;6816;48.506;9.050;2022-09-27T11:09:44;1.13;;;0.43;;
13487;SDS011;6816;48.506;9.050;2022-09-27T11:13:04;0.83;;;0.40;;
13487;SDS011;6816;48.506;9.050;2022-09-27T11:19:39;1.27;;;0.40;;
13487;SDS011;6816;48.506;9.050;2022-09-27T11:23:03;0.50;;;0.43;;
13487;SDS011;6816;48.506;9.050;2022-09-27T11:40:00;0.73;;;0.50;;
13487;SDS011;6816;48.506;9.050;2022-09-27T11:43:45;0.53;;;0.50;;
13487;SDS011;6816;48.506;9.050;2022-09-27T11:47:24;2.00;;;0.40;;
13487;SDS011;6816;48.506;9.050;2022-09-27T11:54:33;1.10;;;0.50;;
13487;SDS011;6816;48.506;9.050;2022-09-27T11:57:43;0.67;;;0.33;;
13487;SDS011;6816;48.506;9.050;2022-09-27T12:07:59;0.67;;;0.43;;
13487;SDS011;6816;48.506;9.050;2022-09-27T12:14:28;0.47;;;0.30;;
13487;SDS011;6816;48.506;9.050;2022-09-27T12:17:39;0.43;;;0.40;;
13487;SDS011;6816;48.506;9.050;2022-09-27T12:20:43;1.40;;;0.40;;
13487;SDS011;6816;48.506;9.050;2022-09-27T12:23:45;2.70;;;0.47;;
13487;SDS011;6816;48.506;9.050;2022-09-27T12:26:49;0.77;;;0.60;;
13487;SDS011;6816;48.506;9.050;2022-09-27T12:29:57;1.60;;;0.53;;
13487;SDS011;6816;48.506;9.050;2022-09-27T12:33:03;1.53;;;0.50;;
13487;SDS011;6816;48.506;9.050;2022-09-27T12:36:27;1.77;;;0.43;;
13487;SDS011;6816;48.506;9.050;2022-09-27T12:40:20;0.57;;;0.30;;
13487;SDS011;6816;48.506;9.050;2022-09-27T12:43:08;1.07;;;0.40;;
13487;SDS011;6816;48.506;9.050;2022-09-27T12:53:12;0.30;;;0.30;;
13487;SDS011;6816;48.506;9.050;2022-09-27T13:09:38;0.63;;;0.30;;
13487;SDS011;6816;48.506;9.050;2022-09-27T13:12:47;0.77;;;0.43;;
13487;SDS011;6816;48.506;9.050;2022-09-27T13:15:51;0.90;;;0.30;;
13487;SDS011;6816;48.506;9.050;2022-09-27T13:18:58;0.50;;;0.30;;
13487;SDS011;6816;48.506;9.050;2022-09-27T13:22:03;0.30;;;0.30;;
13487;SDS011;6816;48.506;9.050;2022-09-27T13:29:02;0.60;;;0.30;;
13487;SDS011;6816;48.506;9.050;2022-09-27T13:32:14;0.30;;;0.30;;
13487;SDS011;6816;48.506;9.050;2022-09-27T13:35:23;0.67;;;0.27;;
13487;SDS011;6816;48.506;9.050;2022-09-27T13:38:25;0.50;;;0.30;;
13487;SDS011;6816;48.506;9.050;2022-09-27T13:44:51;1.13;;;0.30;;
13487;SDS011;6816;48.506;9.050;2022-09-27T13:48:08;0.87;;;0.37;;
13487;SDS011;6816;48.506;9.050;2022-09-27T13:54:39;0.77;;;0.50;;
13487;SDS011;6816;48.506;9.050;2022-09-27T13:57:57;0.87;;;0.40;;
13487;SDS011;6816;48.506;9.050;2022-09-27T14:01:04;1.43;;;0.40;;
13487;SDS011;6816;48.506;9.050;2022-09-27T14:04:13;0.63;;;0.23;;
13487;SDS011;6816;48.506;9.050;2022-09-27T14:07:45;0.57;;;0.20;;
13487;SDS011;6816;48.506;9.050;2022-09-27T14:10:47;0.27;;;0.20;;
13487;SDS011;6816;48.506;9.050;2022-09-27T14:13:48;1.80;;;0.30;;
13487;SDS011;6816;48.506;9.050;2022-09-27T14:16:49;0.50;;;0.30;;
13487;SDS011;6816;48.506;9.050;2022-09-27T14:19:50;0.40;;;0.20;;
13487;SDS011;6816;48.506;9.050;2022-09-27T14:22:53;0.20;;;0.20;;
13487;SDS011;6816;48.506;9.050;2022-09-27T14:25:54;0.70;;;0.20;;
13487;SDS011;6816;48.506;9.050;2022-09-27T14:28:56;0.40;;;0.27;;
13487;SDS011;6816;48.506;9.050;2022-09-27T14:32:03;0.20;;;0.20;;
13487;SDS011;6816;48.506;9.050;2022-09-27T14:38:43;0.97;;;0.27;;
13487;SDS011;6816;48.506;9.050;2022-09-27T14:41:44;0.40;;;0.20;;
13487;SDS011;6816;48.506;9.050;2022-09-27T14:44:45;1.17;;;0.30;;
13487;SDS011;6816;48.506;9.050;2022-09-27T14:47:48;1.17;;;0.30;;
13487;SDS011;6816;48.506;9.050;2022-09-27T14:50:57;0.47;;;0.20;;
13487;SDS011;6816;48.506;9.050;2022-09-27T14:54:00;0.30;;;0.20;;
13487;SDS011;6816;48.506;9.050;2022-09-27T14:57:03;0.30;;;0.10;;
13487;SDS011;6816;48.506;9.050;2022-09-27T15:00:26;0.63;;;0.20;;
13487;SDS011;6816;48.506;9.050;2022-09-27T15:03:31;0.37;;;0.20;;
13487;SDS011;6816;48.506;9.050;2022-09-27T15:06:33;0.43;;;0.20;;
13487;SDS011;6816;48.506;9.050;2022-09-27T15:09:35;0.70;;;0.20;;
13487;SDS011;6816;48.506;9.050;2022-09-27T15:12:38;0.53;;;0.27;;
13487;SDS011;6816;48.506;9.050;2022-09-27T15:15:38;0.87;;;0.30;;
13487;SDS011;6816;48.506;9.050;2022-09-27T15:18:41;0.77;;;0.30;;
13487;SDS011;6816;48.506;9.050;2022-09-27T15:21:42;0.80;;;0.40;;
13487;SDS011;6816;48.506;9.050;2022-09-27T15:24:44;0.60;;;0.30;;
13487;SDS011;6816;48.506;9.050;2022-09-27T15:27:49;0.33;;;0.20;;
13487;SDS011;6816;48.506;9.050;2022-09-27T15:30:55;1.47;;;0.20;;
13487;SDS011;6816;48.506;9.050;2022-09-27T15:33:57;0.93;;;0.33;;
13487;SDS011;6816;48.506;9.050;2022-09-27T15:36:59;0.20;;;0.20;;
13487;SDS011;6816;48.506;9.050;2022-09-27T15:46:49;0.83;;;0.30;;
13487;SDS011;6816;48.506;9.050;2022-09-27T15:49:49;0.20;;;0.20;;
13487;SDS011;6816;48.506;9.050;2022-09-27T15:52:52;2.63;;;0.37;;
13487;SDS011;6816;48.506;9.050;2022-09-27T15:55:57;0.97;;;0.30;;
13487;SDS011;6816;48.506;9.050;2022-09-27T15:58:58;0.30;;;0.20;;
13487;SDS011;6816;48.506;9.050;2022-09-27T16:02:01;1.60;;;0.83;;
13487;SDS011;6816;48.506;9.050;2022-09-27T16:05:08;1.13;;;0.40;;
13487;SDS011;6816;48.506;9.050;2022-09-27T16:08:09;0.90;;;0.30;;
13487;SDS011;6816;48.506;9.050;2022-09-27T16:11:11;0.67;;;0.40;;
13487;SDS011;6816;48.506;9.050;2022-09-27T16:14:15;0.70;;;0.50;;
13487;SDS011;6816;48.506;9.050;2022-09-27T16:17:17;0.93;;;0.40;;
13487;SDS011;6816;48.506;9.050;2022-09-27T16:20:19;0.50;;;0.47;;
13487;SDS011;6816;48.506;9.050;2022-09-27T16:23:25;1.10;;;0.40;;
13487;SDS011;6816;48.506;9.050;2022-09-27T16:26:26;1.63;;;0.40;;
13487;SDS011;6816;48.506;9.050;2022-09-27T16:29:27;0.87;;;0.40;;
13487;SDS011;6816;48.506;9.050;2022-09-27T16:32:27;2.80;;;0.50;;
13487;SDS011;6816;48.506;9.050;2022-09-27T16:35:29;0.93;;;0.40;;
13487;SDS011;6816;48.506;9.050;2022-09-27T16:38:29;0.80;;;0.33;;
13487;SDS011;6816;48.506;9.050;2022-09-27T16:41:30;0.50;;;0.40;;
13487;SDS011;6816;48.506;9.050;2022-09-27T16:44:32;0.40;;;0.30;;
13487;SDS011;6816;48.506;9.050;2022-09-27T16:47:35;1.13;;;0.40;;
13487;SDS011;6816;48.506;9.050;2022-09-27T16:50:36;1.23;;;0.30;;
13487;SDS011;6816;48.506;9.050;2022-09-27T16:53:55;0.90;;;0.43;;
13487;SDS011;6816;48.506;9.050;2022-09-27T16:56:57;1.00;;;0.50;;
13487;SDS011;6816;48.506;9.050;2022-09-27T16:59:58;0.60;;;0.40;;
13487;SDS011;6816;48.506;9.050;2022-09-27T17:02:59;0.93;;;0.53;;
13487;SDS011;6816;48.506;9.050;2022-09-27T17:06:00;1.00;;;0.40;;
13487;SDS011;6816;48.506;9.050;2022-09-27T17:09:03;1.53;;;0.50;;
13487;SDS011;6816;48.506;9.050;2022-09-27T17:12:04;1.60;;;0.63;;
13487;SDS011;6816;48.506;9.050;2022-09-27T17:15:05;0.67;;;0.50;;
13487;SDS011;6816;48.506;9.050;2022-09-27T17:18:06;1.30;;;0.70;;
13487;SDS011;6816;48.506;9.050;2022-09-27T17:21:07;0.83;;;0.50;;
13487;SDS011;6816;48.506;9.050;2022-09-27T17:24:08;0.43;;;0.40;;
13487;SDS011;6816;48.506;9.050;2022-09-27T17:27:08;0.90;;;0.63;;
13487;SDS011;6816;48.506;9.050;2022-09-27T17:30:09;1.30;;;0.60;;
13487;SDS011;6816;48.506;9.050;2022-09-27T17:33:10;0.80;;;0.60;;
13487;SDS011;6816;48.506;9.050;2022-09-27T17:36:12;0.80;;;0.57;;
13487;SDS011;6816;48.506;9.050;2022-09-27T17:39:17;1.63;;;0.60;;
13487;SDS011;6816;48.506;9.050;2022-09-27T17:42:20;2.30;;;0.83;;
13487;SDS011;6816;48.506;9.050;2022-09-27T17:45:22;0.93;;;0.70;;
13487;SDS011;6816;48.506;9.050;2022-09-27T17:48:23;0.97;;;0.30;;
13487;SDS011;6816;48.506;9.050;2022-09-27T17:51:44;0.87;;;0.60;;
13487;SDS011;6816;48.506;9.050;2022-09-27T17:54:46;1.33;;;0.57;;
13487;SDS011;6816;48.506;9.050;2022-09-27T17:57:47;1.33;;;0.50;;
13487;SDS011;6816;48.506;9.050;2022-09-27T18:00:48;0.63;;;0.50;;
13487;SDS011;6816;48.506;9.050;2022-09-27T18:03:51;0.80;;;0.50;;
13487;SDS011;6816;48.506;9.050;2022-09-27T18:06:55;1.00;;;0.60;;
13487;SDS011;6816;48.506;9.050;2022-09-27T18:09:56;2.23;;;0.70;;
13487;SDS011;6816;48.506;9.050;2022-09-27T18:12:57;1.30;;;0.70;;
13487;SDS011;6816;48.506;9.050;2022-09-27T18:15:57;1.93;;;0.73;;
13487;SDS011;6816;48.506;9.050;2022-09-27T18:18:58;1.07;;;0.73;;
13487;SDS011;6816;48.506;9.050;2022-09-27T18:21:59;1.03;;;0.90;;
13487;SDS011;6816;48.506;9.050;2022-09-27T18:25:00;1.63;;;0.97;;
13487;SDS011;6816;48.506;9.050;2022-09-27T18:28:00;2.90;;;0.90;;
13487;SDS011;6816;48.506;9.050;2022-09-27T18:31:03;0.97;;;0.57;;
13487;SDS011;6816;48.506;9.050;2022-09-27T18:34:05;0.93;;;0.60;;
13487;SDS011;6816;48.506;9.050;2022-09-27T18:37:06;0.50;;;0.50;;
13487;SDS011;6816;48.506;9.050;2022-09-27T18:40:07;0.87;;;0.40;;
13487;SDS011;6816;48.506;9.050;2022-09-27T18:43:08;0.30;;;0.23;;
13487;SDS011;6816;48.506;9.050;2022-09-27T18:46:14;0.63;;;0.30;;
13487;SDS011;6816;48.506;9.050;2022-09-27T18:49:17;1.63;;;0.50;;
13487;SDS011;6816;48.506;9.050;2022-09-27T18:52:18;0.27;;;0.27;;
13487;SDS011;6816;48.506;9.050;2022-09-27T18:55:18;0.87;;;0.30;;
13487;SDS011;6816;48.506;9.050;2022-09-27T18:58:19;0.50;;;0.40;;
13487;SDS011;6816;48.506;9.050;2022-09-27T19:01:20;0.90;;;0.40;;
13487;SDS011;6816;48.506;9.050;2022-09-27T19:04:22;1.17;;;0.40;;
13487;SDS011;6816;48.506;9.050;2022-09-27T19:07:25;0.70;;;0.50;;
13487;SDS011;6816;48.506;9.050;2022-09-27T19:10:26;0.73;;;0.47;;
13487;SDS011;6816;48.506;9.050;2022-09-27T19:13:26;1.27;;;0.60;;
13487;SDS011;6816;48.506;9.050;2022-09-27T19:16:27;0.60;;;0.60;;
13487;SDS011;6816;48.506;9.050;2022-09-27T19:19:29;1.63;;;0.90;;
13487;SDS011;6816;48.506;9.050;2022-09-27T19:22:29;1.83;;;1.00;;
13487;SDS011;6816;48.506;9.050;2022-09-27T19:25:30;0.90;;;0.80;;
13487;SDS011;6816;48.506;9.050;2022-09-27T19:28:31;0.50;;;0.50;;
13487;SDS011;6816;48.506;9.050;2022-09-27T19:31:33;1.17;;;0.57;;
13487;SDS011;6816;48.506;9.050;2022-09-27T19:34:34;0.30;;;0.30;;
13487;SDS011;6816;48.506;9.050;2022-09-27T19:37:37;1.37;;;0.80;;
13487;SDS011;6816;48.506;9.050;2022-09-27T19:40:37;0.40;;;0.30;;
13487;SDS011;6816;48.506;9.050;2022-09-27T19:43:38;1.07;;;0.50;;
13487;SDS011;6816;48.506;9.050;2022-09-27T19:46:39;0.40;;;0.40;;
13487;SDS011;6816;48.506;9.050;2022-09-27T19:49:40;0.87;;;0.30;;
13487;SDS011;6816;48.506;9.050;2022-09-27T19:52:41;0.63;;;0.50;;
13487;SDS011;6816;48.506;9.050;2022-09-27T19:55:42;0.83;;;0.40;;
13487;SDS011;6816;48.506;9.050;2022-09-27T19:58:42;0.50;;;0.50;;
13487;SDS011;6816;48.506;9.050;2022-09-27T20:01:43;2.07;;;0.50;;
13487;SDS011;6816;48.506;9.050;2022-09-27T20:04:44;0.60;;;0.57;;
13487;SDS011;6816;48.506;9.050;2022-09-27T20:07:45;3.07;;;0.50;;
13487;SDS011;6816;48.506;9.050;2022-09-27T20:10:56;0.40;;;0.40;;
13487;SDS011;6816;48.506;9.050;2022-09-27T20:13:58;0.60;;;0.47;;
13487;SDS011;6816;48.506;9.050;2022-09-27T20:16:59;0.50;;;0.50;;
13487;SDS011;6816;48.506;9.050;2022-09-27T20:20:00;1.20;;;0.80;;
13487;SDS011;6816;48.506;9.050;2022-09-27T20:23:01;0.90;;;0.60;;
13487;SDS011;6816;48.506;9.050;2022-09-27T20:26:05;0.60;;;0.53;;
13487;SDS011;6816;48.506;9.050;2022-09-27T20:29:09;1.23;;;0.93;;
13487;SDS011;6816;48.506;9.050;2022-09-27T20:32:10;0.53;;;0.30;;
13487;SDS011;6816;48.506;9.050;2022-09-27T20:35:10;0.20;;;0.20;;
13487;SDS011;6816;48.506;9.050;2022-09-27T20:38:11;0.40;;;0.40;;
13487;SDS011;6816;48.506;9.050;2022-09-27T20:41:12;0.80;;;0.50;;
13487;SDS011;6816;48.506;9.050;2022-09-27T20:44:17;0.57;;;0.57;;
13487;SDS011;6816;48.506;9.050;2022-09-27T20:47:19;0.50;;;0.47;;
13487;SDS011;6816;48.506;9.050;2022-09-27T20:50:21;0.30;;;0.30;;
13487;SDS011;6816;48.506;9.050;2022-09-27T20:53:21;0.40;;;0.40;;
13487;SDS011;6816;48.506;9.050;2022-09-27T20:59:25;0.50;;;0.30;;
13487;SDS011;6816;48.506;9.050;2022-09-27T21:02:26;0.60;;;0.43;;
13487;SDS011;6816;48.506;9.050;2022-09-27T21:05:26;0.70;;;0.50;;
13487;SDS011;6816;48.506;9.050;2022-09-27T21:08:27;1.90;;;0.90;;
13487;SDS011;6816;48.506;9.050;2022-09-27T21:11:29;2.30;;;1.20;;
13487;SDS011;6816;48.506;9.050;2022-09-27T21:14:31;2.73;;;1.67;;
13487;SDS011;6816;48.506;9.050;2022-09-27T21:17:31;2.73;;;1.97;;
13487;SDS011;6816;48.506;9.050;2022-09-27T21:20:32;3.40;;;1.70;;